createdAt,value
2018-10-18T00:34:37.357Z,71.60
2018-10-18T00:37:41.573Z,69.57
2018-10-18T00:40:45.865Z,73.50
2018-10-18T00:43:50.231Z,76.60
2018-10-18T00:50:27.893Z,84.03
2018-10-18T00:53:32.245Z,78.37
2018-10-18T00:56:36.549Z,77.50
2018-10-18T00:59:41.999Z,96.67
2018-10-18T01:02:46.325Z,82.53
2018-10-18T01:05:50.646Z,80.10
2018-10-18T01:08:54.978Z,59.20
2018-10-18T01:12:00.598Z,67.73
2018-10-18T01:15:05.698Z,60.83
2018-10-18T01:18:10.427Z,52.93
2018-10-18T01:21:14.716Z,62.50
2018-10-18T01:24:19.050Z,55.43
2018-10-18T01:27:23.311Z,67.53
2018-10-18T01:30:27.599Z,60.83
2018-10-18T01:33:31.889Z,70.77
2018-10-18T01:36:36.240Z,65.37
2018-10-18T01:39:40.550Z,62.43
2018-10-18T01:42:44.992Z,62.10
2018-10-18T01:45:49.279Z,59.07
2018-10-18T01:48:53.510Z,56.13
2018-10-18T01:51:58.858Z,53.43
2018-10-18T01:55:04.892Z,56.10
2018-10-18T01:58:09.189Z,52.63
2018-10-18T02:01:13.572Z,51.53
2018-10-18T02:04:17.889Z,52.50
2018-10-18T02:07:22.193Z,52.00
2018-10-18T02:10:27.029Z,50.00
2018-10-18T02:13:31.387Z,56.47
2018-10-18T02:16:36.289Z,54.23
2018-10-18T02:19:40.616Z,53.97
2018-10-18T02:22:46.260Z,51.53
2018-10-18T02:25:51.070Z,55.93
2018-10-18T02:28:55.338Z,47.83
2018-10-18T02:31:59.644Z,47.07
2018-10-18T02:35:04.119Z,45.17
2018-10-18T02:38:08.564Z,44.90
2018-10-18T02:41:12.636Z,49.30
2018-10-18T02:44:16.912Z,43.40
2018-10-18T02:47:21.358Z,48.97
2018-10-18T02:50:27.244Z,50.33
2018-10-18T02:53:31.394Z,50.60
2018-10-18T02:56:35.473Z,47.47
2018-10-18T02:59:39.912Z,50.13
2018-10-18T03:02:44.184Z,48.53
2018-10-18T03:05:48.463Z,43.07
2018-10-18T03:08:52.717Z,39.77
2018-10-18T03:11:57.105Z,45.53
2018-10-18T03:15:02.007Z,44.70
2018-10-18T03:18:08.149Z,47.60
2018-10-18T03:21:13.559Z,50.47
2018-10-18T03:24:17.970Z,52.43
2018-10-18T03:27:22.188Z,52.07
2018-10-18T03:30:26.463Z,59.47
2018-10-18T03:33:30.731Z,58.87
2018-10-18T03:36:35.007Z,54.23
2018-10-18T03:39:39.313Z,55.07
2018-10-18T03:42:43.650Z,54.83
2018-10-18T03:45:47.971Z,55.53
2018-10-18T03:48:52.245Z,54.90
2018-10-18T03:51:56.587Z,55.73
2018-10-18T03:55:01.576Z,56.03
2018-10-18T03:58:05.873Z,58.07
2018-10-18T04:01:11.403Z,63.77
2018-10-18T04:04:18.171Z,61.23
2018-10-18T04:07:22.434Z,59.63
2018-10-18T04:10:26.750Z,63.33
2018-10-18T04:13:31.027Z,63.37
2018-10-18T04:16:35.388Z,69.13
2018-10-18T04:19:39.671Z,67.33
2018-10-18T04:22:44.045Z,66.07
2018-10-18T04:25:48.880Z,72.37
2018-10-18T04:28:53.169Z,62.23
2018-10-18T04:31:57.418Z,66.83
2018-10-18T04:35:01.728Z,73.23
2018-10-18T04:38:06.051Z,68.97
2018-10-18T04:41:10.348Z,73.57
2018-10-18T04:44:14.477Z,77.27
2018-10-18T04:47:18.861Z,73.53
2018-10-18T04:50:23.105Z,70.40
2018-10-18T04:53:29.180Z,74.10
2018-10-18T04:56:33.330Z,74.53
2018-10-18T04:59:37.737Z,78.07
2018-10-18T05:02:42.137Z,79.37
2018-10-18T05:05:56.557Z,79.13
2018-10-18T05:09:00.919Z,75.90
2018-10-18T05:12:05.269Z,74.77
2018-10-18T05:15:09.893Z,79.20
2018-10-18T05:18:15.317Z,77.97
2018-10-18T05:21:19.625Z,79.70
2018-10-18T05:24:25.263Z,73.80
2018-10-18T05:27:30.847Z,66.77
2018-10-18T05:30:36.815Z,69.57
2018-10-18T05:33:41.122Z,75.90
2018-10-18T05:36:45.456Z,72.17
2018-10-18T05:39:49.768Z,68.07
2018-10-18T05:42:54.203Z,61.03
2018-10-18T05:45:58.462Z,62.20
2018-10-18T05:49:02.757Z,53.67
2018-10-18T05:52:07.048Z,53.93
2018-10-18T05:55:12.864Z,44.97
2018-10-18T05:58:18.562Z,41.83
2018-10-18T06:01:22.984Z,40.07
2018-10-18T06:04:26.979Z,42.70
2018-10-18T06:07:31.350Z,34.90
2018-10-18T06:10:52.622Z,23.93
2018-10-18T06:13:57.082Z,15.57
2018-10-18T06:17:01.815Z,11.80
2018-10-18T06:20:06.364Z,10.27
2018-10-18T06:23:10.661Z,10.33
2018-10-18T06:26:14.802Z,10.80
2018-10-18T06:29:19.058Z,11.47
2018-10-18T06:32:23.398Z,9.57
2018-10-18T06:35:27.680Z,10.30
2018-10-18T06:38:31.930Z,7.83
2018-10-18T06:41:36.422Z,8.37
2018-10-18T06:44:40.658Z,7.73
2018-10-18T06:47:45.857Z,6.43
2018-10-18T06:50:51.493Z,6.87
2018-10-18T06:53:55.649Z,7.43
2018-10-18T06:57:01.545Z,9.07
2018-10-18T07:00:09.359Z,8.60
2018-10-18T07:03:14.529Z,8.03
2018-10-18T07:06:18.848Z,12.73
2018-10-18T07:09:23.099Z,9.53
2018-10-18T07:12:27.704Z,7.33
2018-10-18T07:15:32.013Z,9.47
2018-10-18T07:18:36.347Z,9.83
2018-10-18T07:21:40.838Z,10.80
2018-10-18T07:24:45.115Z,12.60
2018-10-18T07:27:49.208Z,8.23
2018-10-18T07:30:55.255Z,8.77
2018-10-18T07:33:59.621Z,12.40
2018-10-18T07:37:03.745Z,10.47
2018-10-18T07:40:09.670Z,9.37
2018-10-18T07:43:13.934Z,7.07
2018-10-18T07:46:18.703Z,7.00
2018-10-18T07:49:23.019Z,8.90
2018-10-18T07:52:27.356Z,12.77
2018-10-18T07:55:32.866Z,7.33
2018-10-18T07:58:37.211Z,8.33
2018-10-18T08:01:41.493Z,7.73
2018-10-18T08:04:45.720Z,8.13
2018-10-18T08:07:50.069Z,7.70
2018-10-18T08:10:58.122Z,6.87
2018-10-18T08:14:04.646Z,7.70
2018-10-18T08:17:11.241Z,6.13
2018-10-18T08:20:33.385Z,10.93
2018-10-18T08:23:38.297Z,4.97
2018-10-18T08:26:42.635Z,8.77
2018-10-18T08:29:47.048Z,6.43
2018-10-18T08:32:51.384Z,9.33
2018-10-18T08:35:56.457Z,12.47
2018-10-18T08:39:00.821Z,8.17
2018-10-18T08:42:05.335Z,10.60
2018-10-18T08:45:10.863Z,10.90
2018-10-18T08:48:15.209Z,9.03
2018-10-18T08:51:19.329Z,7.20
2018-10-18T08:54:23.705Z,7.57
2018-10-18T08:57:27.956Z,8.60
2018-10-18T09:00:32.284Z,6.43
2018-10-18T09:03:36.554Z,10.70
2018-10-18T09:06:40.796Z,5.93
2018-10-18T09:09:45.102Z,7.33
2018-10-18T09:12:49.355Z,3.73
2018-10-18T09:15:53.766Z,8.13
2018-10-18T09:18:58.203Z,10.60
2018-10-18T09:22:02.478Z,9.67
2018-10-18T09:25:07.954Z,6.20
2018-10-18T09:28:12.331Z,5.40
2018-10-18T09:31:16.754Z,8.00
2018-10-18T09:34:20.919Z,4.97
2018-10-18T09:37:25.325Z,7.90
2018-10-18T09:40:29.609Z,5.03
2018-10-18T09:43:33.944Z,5.87
2018-10-18T09:46:38.341Z,5.97
2018-10-18T09:49:42.700Z,9.47
2018-10-18T09:52:47.180Z,7.43
2018-10-18T09:55:51.537Z,5.63
2018-10-18T09:58:55.869Z,4.77
2018-10-18T10:02:05.370Z,4.87
2018-10-18T10:05:10.195Z,7.87
2018-10-18T10:08:15.817Z,5.97
2018-10-18T10:11:20.055Z,7.60
2018-10-18T10:14:24.386Z,8.10
2018-10-18T10:17:28.708Z,5.73
2018-10-18T10:20:32.870Z,7.97
2018-10-18T10:23:37.311Z,7.37
2018-10-18T10:26:42.788Z,5.30
2018-10-18T10:29:47.064Z,6.77
2018-10-18T10:32:51.234Z,6.10
2018-10-18T10:35:55.507Z,5.47
2018-10-18T10:38:59.784Z,5.30
2018-10-18T10:42:04.235Z,7.47
2018-10-18T10:45:09.859Z,4.50
2018-10-18T10:48:14.380Z,6.33
2018-10-18T10:51:18.737Z,7.77
2018-10-18T10:54:22.934Z,4.97
2018-10-18T10:57:27.289Z,5.10
2018-10-18T11:00:42.626Z,6.30
2018-10-18T11:03:47.449Z,8.67
2018-10-18T11:06:51.836Z,6.17
2018-10-18T11:09:56.106Z,5.63
2018-10-18T11:13:01.447Z,5.30
2018-10-18T11:16:06.355Z,2.60
2018-10-18T11:19:10.735Z,4.33
2018-10-18T11:22:15.041Z,5.60
2018-10-18T11:25:19.393Z,6.27
2018-10-18T11:28:23.691Z,6.67
2018-10-18T11:31:28.005Z,6.23
2018-10-18T11:34:32.416Z,7.03
2018-10-18T11:37:36.787Z,8.47
2018-10-18T11:40:41.047Z,10.70
2018-10-18T11:43:45.364Z,3.93
2018-10-18T11:46:49.684Z,7.53
2018-10-18T11:49:54.054Z,5.97
2018-10-18T11:53:00.088Z,5.70
2018-10-18T11:56:04.420Z,7.77
2018-10-18T11:59:08.537Z,6.20
2018-10-18T12:02:12.781Z,5.57
2018-10-18T12:05:17.132Z,4.70
2018-10-18T12:08:21.395Z,13.60
2018-10-18T12:11:25.698Z,4.57
2018-10-18T12:14:30.034Z,6.67
2018-10-18T12:17:34.634Z,4.70
2018-10-18T12:20:40.731Z,8.93
2018-10-18T12:23:45.080Z,9.90
2018-10-18T12:26:49.447Z,7.47
2018-10-18T12:29:53.686Z,4.67
2018-10-18T12:32:58.006Z,2.63
2018-10-18T12:36:02.342Z,5.00
2018-10-18T12:39:08.995Z,2.40
2018-10-18T12:42:13.753Z,4.77
2018-10-18T12:45:18.079Z,3.63
2018-10-18T12:48:22.514Z,5.57
2018-10-18T12:51:26.717Z,4.37
2018-10-18T12:54:31.168Z,4.40
2018-10-18T12:57:35.443Z,7.37
2018-10-18T13:00:40.922Z,3.13
2018-10-18T13:03:45.590Z,3.37
2018-10-18T13:06:51.491Z,5.33
2018-10-18T13:09:55.807Z,3.33
2018-10-18T13:13:00.138Z,4.47
2018-10-18T13:16:04.441Z,5.93
2018-10-18T13:19:09.155Z,3.33
2018-10-18T13:22:13.421Z,7.20
2018-10-18T13:25:17.835Z,4.07
2018-10-18T13:28:22.149Z,6.03
2018-10-18T13:31:26.611Z,4.20
2018-10-18T13:34:30.868Z,4.90
2018-10-18T13:37:35.172Z,6.83
2018-10-18T13:40:39.476Z,4.60
2018-10-18T13:43:43.759Z,2.90
2018-10-18T13:46:48.019Z,2.30
2018-10-18T13:49:52.409Z,6.50
2018-10-18T13:52:56.725Z,4.17
2018-10-18T13:56:01.046Z,5.20
2018-10-18T13:59:05.323Z,5.20
2018-10-18T14:02:09.965Z,5.77
2018-10-18T14:05:14.317Z,5.40
2018-10-18T14:08:18.551Z,3.93
2018-10-18T14:11:22.604Z,2.63
2018-10-18T14:14:26.931Z,4.20
2018-10-18T14:17:31.420Z,6.43
2018-10-18T14:20:35.767Z,3.77
2018-10-18T14:23:39.871Z,2.57
2018-10-18T14:26:45.830Z,7.53
2018-10-18T14:29:50.135Z,4.63
2018-10-18T14:32:54.437Z,7.43
2018-10-18T14:36:00.222Z,5.20
2018-10-18T14:39:05.367Z,4.53
2018-10-18T14:42:09.672Z,5.23
2018-10-18T14:45:14.007Z,5.37
2018-10-18T14:48:18.323Z,4.60
2018-10-18T14:51:22.637Z,18.80
2018-10-18T14:54:26.930Z,6.37
2018-10-18T14:57:31.196Z,7.60
2018-10-18T15:00:35.496Z,5.67
2018-10-18T15:03:39.780Z,4.40
2018-10-18T15:06:44.105Z,5.40
2018-10-18T15:09:48.378Z,8.73
2018-10-18T15:12:52.741Z,7.83
2018-10-18T15:15:57.022Z,6.77
2018-10-18T15:19:01.215Z,5.10
2018-10-18T15:22:05.579Z,8.50
2018-10-18T15:25:11.384Z,7.27
2018-10-18T15:28:15.653Z,5.40
2018-10-18T15:31:20.001Z,7.07
2018-10-18T15:34:24.335Z,7.50
2018-10-18T15:37:29.633Z,7.73
2018-10-18T15:40:33.999Z,6.03
2018-10-18T15:43:38.125Z,8.90
2018-10-18T15:46:43.083Z,6.60
2018-10-18T15:49:47.465Z,4.50
2018-10-18T15:52:51.497Z,8.63
2018-10-18T15:55:55.829Z,6.87
2018-10-18T15:59:00.275Z,5.07
2018-10-18T16:02:04.524Z,6.00
2018-10-18T16:05:09.044Z,3.97
2018-10-18T16:08:15.252Z,4.97
2018-10-18T16:11:21.243Z,4.83
2018-10-18T16:14:27.627Z,4.47
2018-10-18T16:17:34.250Z,6.47
2018-10-18T16:20:38.643Z,12.03
2018-10-18T16:23:42.703Z,5.63
2018-10-18T16:26:47.006Z,7.00
2018-10-18T16:29:51.477Z,5.90
2018-10-18T16:32:55.552Z,6.73
2018-10-18T16:35:59.960Z,7.07
2018-10-18T16:39:06.282Z,14.70
2018-10-18T16:42:10.628Z,17.67
2018-10-18T16:45:14.922Z,11.47
2018-10-18T16:48:19.451Z,12.57
2018-10-18T16:51:23.600Z,10.30
2018-10-18T16:54:29.103Z,13.90
2018-10-18T16:57:33.115Z,11.50
2018-10-18T17:00:37.386Z,9.50
2018-10-18T17:03:41.700Z,8.27
2018-10-18T17:06:45.978Z,15.90
2018-10-18T17:09:50.448Z,12.30
2018-10-18T17:12:54.712Z,8.90
2018-10-18T17:16:02.612Z,9.73
2018-10-18T17:19:07.877Z,8.10
2018-10-18T17:22:12.260Z,24.60
2018-10-18T17:25:16.385Z,8.47
2018-10-18T17:28:20.810Z,8.27
2018-10-18T17:31:25.135Z,10.47
2018-10-18T17:34:29.483Z,10.50
2018-10-18T17:37:34.095Z,12.83
2018-10-18T17:40:38.580Z,11.67
2018-10-18T17:43:42.760Z,12.27
2018-10-18T17:46:47.065Z,13.27
2018-10-18T17:49:51.342Z,14.10
2018-10-18T17:52:55.722Z,15.43
2018-10-18T17:56:00.036Z,13.43
2018-10-18T17:59:04.323Z,10.17
2018-10-18T18:02:09.939Z,16.20
2018-10-18T18:05:14.162Z,18.27
2018-10-18T18:08:18.532Z,15.10
2018-10-18T18:11:22.806Z,15.50
2018-10-18T18:14:27.157Z,11.63
2018-10-18T18:17:31.468Z,15.20
2018-10-18T18:20:35.600Z,18.07
2018-10-18T18:23:40.911Z,18.27
2018-10-18T18:26:45.786Z,18.00
2018-10-18T18:29:49.759Z,20.63
2018-10-18T18:32:54.088Z,15.87
2018-10-18T18:35:58.379Z,15.50
2018-10-18T18:39:02.738Z,11.77
2018-10-18T18:42:07.071Z,10.53
2018-10-18T18:45:16.794Z,10.30
2018-10-18T18:48:22.090Z,15.37
2018-10-18T18:51:26.332Z,11.30
2018-10-18T18:54:30.586Z,8.60
2018-10-18T18:57:34.930Z,12.27
2018-10-18T19:00:39.961Z,9.10
2018-10-18T19:03:44.407Z,11.07
2018-10-18T19:06:48.699Z,6.30
2018-10-18T19:09:52.971Z,7.80
2018-10-18T19:12:57.257Z,11.37
2018-10-18T19:16:01.365Z,10.30
2018-10-18T19:19:06.196Z,8.73
2018-10-18T19:22:10.355Z,13.80
2018-10-18T19:25:14.362Z,9.40
2018-10-18T19:28:18.760Z,8.53
2018-10-18T19:31:23.041Z,8.13
2018-10-18T19:34:27.317Z,10.37
2018-10-18T19:37:31.614Z,9.20
2018-10-18T19:40:35.898Z,9.33
2018-10-18T19:43:40.211Z,10.17
2018-10-18T19:46:44.508Z,12.00
2018-10-18T19:49:49.789Z,10.73
2018-10-18T19:52:54.070Z,11.23
2018-10-18T19:55:58.504Z,8.17
2018-10-18T19:59:02.893Z,10.00
2018-10-18T20:02:07.842Z,13.63
2018-10-18T20:05:13.644Z,9.73
2018-10-18T20:08:18.128Z,14.13
2018-10-18T20:11:23.339Z,14.73
2018-10-18T20:14:27.638Z,10.97
2018-10-18T20:17:31.689Z,11.83
2018-10-18T20:20:36.681Z,17.50
2018-10-18T20:23:40.758Z,11.70
2018-10-18T20:26:45.062Z,15.87
2018-10-18T20:29:49.343Z,16.80
2018-10-18T20:32:54.388Z,15.23
2018-10-18T20:35:58.725Z,12.90
2018-10-18T20:39:03.061Z,11.37
2018-10-18T20:42:08.108Z,22.00
2018-10-18T20:45:17.538Z,13.77
2018-10-18T20:48:21.835Z,14.27
2018-10-18T20:51:25.983Z,13.30
2018-10-18T20:54:30.258Z,14.90
2018-10-18T20:57:34.638Z,12.70
2018-10-18T21:00:38.944Z,12.73
2018-10-18T21:03:43.201Z,16.77
2018-10-18T21:06:47.220Z,13.10
2018-10-18T21:09:51.610Z,13.13
2018-10-18T21:12:56.266Z,17.53
2018-10-18T21:16:00.661Z,15.33
2018-10-18T21:19:05.080Z,11.50
2018-10-18T21:22:10.076Z,9.97
2018-10-18T21:25:14.374Z,12.57
2018-10-18T21:28:18.760Z,16.93
2018-10-18T21:31:23.060Z,15.43
2018-10-18T21:34:27.543Z,17.47
2018-10-18T21:37:31.570Z,13.97
2018-10-18T21:40:35.949Z,10.97
2018-10-18T21:43:40.564Z,12.80
2018-10-18T21:46:46.172Z,12.93
2018-10-18T21:49:50.544Z,11.57
2018-10-18T21:52:54.841Z,9.17
2018-10-18T21:55:59.164Z,16.30
2018-10-18T21:59:03.543Z,11.77
2018-10-18T22:02:07.825Z,17.40
2018-10-18T22:05:12.884Z,11.30
2018-10-18T22:08:17.232Z,16.43
2018-10-18T22:11:21.656Z,18.00
2018-10-18T22:14:26.116Z,10.40
2018-10-18T22:17:30.262Z,54.80
2018-10-18T22:20:34.310Z,43.50
2018-10-18T22:23:41.688Z,13.10
2018-10-18T22:26:45.995Z,11.80
2018-10-18T22:29:50.509Z,11.47
2018-10-18T22:32:55.005Z,13.80
2018-10-18T22:35:59.173Z,11.07
2018-10-18T22:39:05.048Z,11.80
2018-10-18T22:42:09.173Z,12.00
2018-10-18T22:45:13.391Z,13.33
2018-10-18T22:48:17.737Z,6.23
2018-10-18T22:51:22.084Z,14.33
2018-10-18T22:54:26.375Z,10.00
2018-10-18T22:57:32.569Z,14.07
2018-10-18T23:00:36.861Z,6.97
2018-10-18T23:03:41.017Z,12.67
2018-10-18T23:06:46.241Z,12.70
2018-10-18T23:09:50.566Z,13.17
2018-10-18T23:12:54.606Z,14.67
2018-10-18T23:15:58.654Z,9.57
2018-10-18T23:19:02.925Z,13.70
2018-10-18T23:22:08.712Z,7.90
2018-10-18T23:25:13.058Z,12.83
2018-10-18T23:28:17.387Z,8.83
2018-10-18T23:31:21.716Z,13.57
2018-10-18T23:34:26.035Z,12.93
2018-10-18T23:37:30.533Z,13.23
2018-10-18T23:40:34.894Z,11.10
2018-10-18T23:43:39.146Z,9.20
2018-10-18T23:46:43.190Z,8.43
2018-10-18T23:49:47.513Z,14.77
2018-10-18T23:52:51.820Z,9.73
2018-10-18T23:55:56.102Z,11.70
2018-10-18T23:59:00.994Z,13.53
